sensor_id;sensor_type;location;lat;lon;timestamp;P1;durP1;ratioP1;P2;durP2;ratioP2
32697;SDS011;19087;51.062;3.754;2023-09-19T00:00:21;0.20;;;0.20;;
32697;SDS011;19087;51.062;3.754;2023-09-19T00:02:55;0.20;;;0.20;;
32697;SDS011;19087;51.062;3.754;2023-09-19T00:05:24;0.28;;;0.28;;
32697;SDS011;19087;51.062;3.754;2023-09-19T00:07:54;0.20;;;0.20;;
32697;SDS011;19087;51.062;3.754;2023-09-19T00:10:25;0.20;;;0.20;;
32697;SDS011;19087;51.062;3.754;2023-09-19T00:12:52;0.20;;;0.20;;
32697;SDS011;19087;51.062;3.754;2023-09-19T00:15:24;0.20;;;0.20;;
32697;SDS011;19087;51.062;3.754;2023-09-19T00:17:53;0.20;;;0.20;;
32697;SDS011;19087;51.062;3.754;2023-09-19T00:20:20;0.20;;;0.20;;
32697;SDS011;19087;51.062;3.754;2023-09-19T00:22:48;0.20;;;0.20;;
32697;SDS011;19087;51.062;3.754;2023-09-19T00:25:18;0.22;;;0.22;;
32697;SDS011;19087;51.062;3.754;2023-09-19T00:27:45;0.20;;;0.20;;
32697;SDS011;19087;51.062;3.754;2023-09-19T00:30:16;0.20;;;0.20;;
32697;SDS011;19087;51.062;3.754;2023-09-19T00:32:46;0.20;;;0.20;;
32697;SDS011;19087;51.062;3.754;2023-09-19T00:35:13;0.20;;;0.20;;
32697;SDS011;19087;51.062;3.754;2023-09-19T00:37:40;0.20;;;0.20;;
32697;SDS011;19087;51.062;3.754;2023-09-19T00:40:07;0.20;;;0.20;;
32697;SDS011;19087;51.062;3.754;2023-09-19T00:42:37;0.20;;;0.20;;
32697;SDS011;19087;51.062;3.754;2023-09-19T00:45:07;0.20;;;0.20;;
32697;SDS011;19087;51.062;3.754;2023-09-19T00:47:55;0.20;;;0.20;;
32697;SDS011;19087;51.062;3.754;2023-09-19T00:50:23;0.20;;;0.20;;
32697;SDS011;19087;51.062;3.754;2023-09-19T00:52:53;0.20;;;0.20;;
32697;SDS011;19087;51.062;3.754;2023-09-19T00:55:22;0.20;;;0.20;;
32697;SDS011;19087;51.062;3.754;2023-09-19T00:57:49;0.20;;;0.20;;
32697;SDS011;19087;51.062;3.754;2023-09-19T01:00:15;0.20;;;0.20;;
32697;SDS011;19087;51.062;3.754;2023-09-19T01:02:45;0.20;;;0.20;;
32697;SDS011;19087;51.062;3.754;2023-09-19T01:05:11;0.20;;;0.20;;
32697;SDS011;19087;51.062;3.754;2023-09-19T01:07:38;0.20;;;0.20;;
32697;SDS011;19087;51.062;3.754;2023-09-19T01:10:06;0.20;;;0.20;;
32697;SDS011;19087;51.062;3.754;2023-09-19T01:18:27;0.20;;;0.20;;
32697;SDS011;19087;51.062;3.754;2023-09-19T01:23:23;0.20;;;0.20;;
32697;SDS011;19087;51.062;3.754;2023-09-19T01:32:04;0.20;;;0.20;;
32697;SDS011;19087;51.062;3.754;2023-09-19T01:34:43;0.20;;;0.20;;
32697;SDS011;19087;51.062;3.754;2023-09-19T01:37:11;0.20;;;0.20;;
32697;SDS011;19087;51.062;3.754;2023-09-19T01:39:36;0.20;;;0.20;;
32697;SDS011;19087;51.062;3.754;2023-09-19T01:47:18;0.20;;;0.20;;
32697;SDS011;19087;51.062;3.754;2023-09-19T01:49:56;0.20;;;0.20;;
32697;SDS011;19087;51.062;3.754;2023-09-19T01:52:47;0.20;;;0.20;;
32697;SDS011;19087;51.062;3.754;2023-09-19T01:55:20;0.20;;;0.20;;
32697;SDS011;19087;51.062;3.754;2023-09-19T02:00:34;0.28;;;0.28;;
32697;SDS011;19087;51.062;3.754;2023-09-19T02:03:02;0.20;;;0.20;;
32697;SDS011;19087;51.062;3.754;2023-09-19T02:05:29;0.20;;;0.20;;
32697;SDS011;19087;51.062;3.754;2023-09-19T02:07:55;0.20;;;0.20;;
32697;SDS011;19087;51.062;3.754;2023-09-19T02:10:21;0.20;;;0.20;;
32697;SDS011;19087;51.062;3.754;2023-09-19T02:12:49;0.20;;;0.20;;
32697;SDS011;19087;51.062;3.754;2023-09-19T02:15:15;0.20;;;0.20;;
32697;SDS011;19087;51.062;3.754;2023-09-19T02:17:42;0.20;;;0.20;;
32697;SDS011;19087;51.062;3.754;2023-09-19T02:20:10;0.20;;;0.20;;
32697;SDS011;19087;51.062;3.754;2023-09-19T02:22:40;0.20;;;0.20;;
32697;SDS011;19087;51.062;3.754;2023-09-19T02:25:07;0.20;;;0.20;;
32697;SDS011;19087;51.062;3.754;2023-09-19T02:27:33;0.20;;;0.20;;
32697;SDS011;19087;51.062;3.754;2023-09-19T02:29:59;0.20;;;0.20;;
32697;SDS011;19087;51.062;3.754;2023-09-19T02:32:29;0.20;;;0.20;;
32697;SDS011;19087;51.062;3.754;2023-09-19T02:34:56;0.20;;;0.20;;
32697;SDS011;19087;51.062;3.754;2023-09-19T02:37:25;0.20;;;0.20;;
32697;SDS011;19087;51.062;3.754;2023-09-19T02:39:51;0.20;;;0.20;;
32697;SDS011;19087;51.062;3.754;2023-09-19T02:42:17;0.20;;;0.20;;
32697;SDS011;19087;51.062;3.754;2023-09-19T02:44:42;0.20;;;0.20;;
32697;SDS011;19087;51.062;3.754;2023-09-19T02:47:12;0.20;;;0.20;;
32697;SDS011;19087;51.062;3.754;2023-09-19T02:49:37;0.22;;;0.22;;
32697;SDS011;19087;51.062;3.754;2023-09-19T02:52:03;0.20;;;0.20;;
32697;SDS011;19087;51.062;3.754;2023-09-19T02:54:30;0.20;;;0.20;;
32697;SDS011;19087;51.062;3.754;2023-09-19T02:56:55;0.20;;;0.20;;
32697;SDS011;19087;51.062;3.754;2023-09-19T02:59:21;0.20;;;0.20;;
32697;SDS011;19087;51.062;3.754;2023-09-19T03:01:47;0.20;;;0.20;;
32697;SDS011;19087;51.062;3.754;2023-09-19T03:04:13;0.20;;;0.20;;
32697;SDS011;19087;51.062;3.754;2023-09-19T03:06:45;0.20;;;0.20;;
32697;SDS011;19087;51.062;3.754;2023-09-19T03:09:11;0.20;;;0.20;;
32697;SDS011;19087;51.062;3.754;2023-09-19T03:11:37;0.20;;;0.20;;
32697;SDS011;19087;51.062;3.754;2023-09-19T03:14:05;0.10;;;0.10;;
32697;SDS011;19087;51.062;3.754;2023-09-19T03:16:31;0.20;;;0.20;;
32697;SDS011;19087;51.062;3.754;2023-09-19T03:18:57;0.20;;;0.20;;
32697;SDS011;19087;51.062;3.754;2023-09-19T03:21:25;0.20;;;0.20;;
32697;SDS011;19087;51.062;3.754;2023-09-19T03:23:50;0.20;;;0.20;;
32697;SDS011;19087;51.062;3.754;2023-09-19T03:26:16;0.20;;;0.20;;
32697;SDS011;19087;51.062;3.754;2023-09-19T03:28:42;0.20;;;0.20;;
32697;SDS011;19087;51.062;3.754;2023-09-19T03:31:11;0.10;;;0.10;;
32697;SDS011;19087;51.062;3.754;2023-09-19T03:33:36;0.20;;;0.20;;
32697;SDS011;19087;51.062;3.754;2023-09-19T03:36:02;0.22;;;0.22;;
32697;SDS011;19087;51.062;3.754;2023-09-19T03:38:32;0.20;;;0.20;;
32697;SDS011;19087;51.062;3.754;2023-09-19T03:40:59;0.20;;;0.20;;
32697;SDS011;19087;51.062;3.754;2023-09-19T03:43:26;0.20;;;0.20;;
32697;SDS011;19087;51.062;3.754;2023-09-19T03:45:52;0.20;;;0.20;;
32697;SDS011;19087;51.062;3.754;2023-09-19T03:48:20;0.20;;;0.20;;
32697;SDS011;19087;51.062;3.754;2023-09-19T03:50:47;0.15;;;0.15;;
32697;SDS011;19087;51.062;3.754;2023-09-19T03:53:13;0.20;;;0.20;;
32697;SDS011;19087;51.062;3.754;2023-09-19T03:55:38;0.20;;;0.20;;
32697;SDS011;19087;51.062;3.754;2023-09-19T03:58:04;0.17;;;0.17;;
32697;SDS011;19087;51.062;3.754;2023-09-19T04:00:30;0.20;;;0.20;;
32697;SDS011;19087;51.062;3.754;2023-09-19T04:02:56;0.20;;;0.20;;
32697;SDS011;19087;51.062;3.754;2023-09-19T04:05:22;0.20;;;0.20;;
32697;SDS011;19087;51.062;3.754;2023-09-19T04:07:48;0.20;;;0.20;;
32697;SDS011;19087;51.062;3.754;2023-09-19T04:10:15;0.10;;;0.10;;
32697;SDS011;19087;51.062;3.754;2023-09-19T04:12:50;0.20;;;0.20;;
32697;SDS011;19087;51.062;3.754;2023-09-19T04:15:20;0.10;;;0.10;;
32697;SDS011;19087;51.062;3.754;2023-09-19T04:17:48;0.20;;;0.20;;
32697;SDS011;19087;51.062;3.754;2023-09-19T04:20:19;0.20;;;0.20;;
32697;SDS011;19087;51.062;3.754;2023-09-19T04:22:45;0.15;;;0.15;;
32697;SDS011;19087;51.062;3.754;2023-09-19T04:25:12;0.20;;;0.20;;
32697;SDS011;19087;51.062;3.754;2023-09-19T04:27:38;0.10;;;0.10;;
32697;SDS011;19087;51.062;3.754;2023-09-19T04:30:04;0.10;;;0.10;;
32697;SDS011;19087;51.062;3.754;2023-09-19T04:32:35;0.20;;;0.20;;
32697;SDS011;19087;51.062;3.754;2023-09-19T04:35:04;0.17;;;0.17;;
32697;SDS011;19087;51.062;3.754;2023-09-19T04:37:33;0.20;;;0.20;;
32697;SDS011;19087;51.062;3.754;2023-09-19T04:39:59;0.20;;;0.20;;
32697;SDS011;19087;51.062;3.754;2023-09-19T04:42:24;0.20;;;0.20;;
32697;SDS011;19087;51.062;3.754;2023-09-19T04:44:50;0.10;;;0.10;;
32697;SDS011;19087;51.062;3.754;2023-09-19T04:47:18;0.20;;;0.20;;
32697;SDS011;19087;51.062;3.754;2023-09-19T04:49:43;0.15;;;0.15;;
32697;SDS011;19087;51.062;3.754;2023-09-19T04:52:09;0.20;;;0.20;;
32697;SDS011;19087;51.062;3.754;2023-09-19T04:54:35;0.20;;;0.20;;
32697;SDS011;19087;51.062;3.754;2023-09-19T04:57:02;0.20;;;0.20;;
32697;SDS011;19087;51.062;3.754;2023-09-19T04:59:31;0.10;;;0.10;;
32697;SDS011;19087;51.062;3.754;2023-09-19T05:01:56;0.20;;;0.20;;
32697;SDS011;19087;51.062;3.754;2023-09-19T05:04:22;0.20;;;0.20;;
32697;SDS011;19087;51.062;3.754;2023-09-19T05:06:48;0.20;;;0.20;;
32697;SDS011;19087;51.062;3.754;2023-09-19T05:09:13;0.20;;;0.20;;
32697;SDS011;19087;51.062;3.754;2023-09-19T05:11:40;0.13;;;0.13;;
32697;SDS011;19087;51.062;3.754;2023-09-19T05:14:06;0.20;;;0.20;;
32697;SDS011;19087;51.062;3.754;2023-09-19T05:16:32;0.20;;;0.20;;
32697;SDS011;19087;51.062;3.754;2023-09-19T05:18:58;0.20;;;0.20;;
32697;SDS011;19087;51.062;3.754;2023-09-19T05:21:26;0.20;;;0.20;;
32697;SDS011;19087;51.062;3.754;2023-09-19T05:23:55;0.17;;;0.17;;
32697;SDS011;19087;51.062;3.754;2023-09-19T05:26:21;0.20;;;0.20;;
32697;SDS011;19087;51.062;3.754;2023-09-19T05:28:47;0.20;;;0.20;;
32697;SDS011;19087;51.062;3.754;2023-09-19T05:31:13;0.10;;;0.10;;
32697;SDS011;19087;51.062;3.754;2023-09-19T05:33:40;0.20;;;0.20;;
32697;SDS011;19087;51.062;3.754;2023-09-19T05:36:06;0.20;;;0.20;;
32697;SDS011;19087;51.062;3.754;2023-09-19T05:38:32;0.20;;;0.20;;
32697;SDS011;19087;51.062;3.754;2023-09-19T05:40:58;0.10;;;0.10;;
32697;SDS011;19087;51.062;3.754;2023-09-19T05:43:25;0.20;;;0.20;;
32697;SDS011;19087;51.062;3.754;2023-09-19T05:45:50;0.13;;;0.13;;
32697;SDS011;19087;51.062;3.754;2023-09-19T05:48:17;0.20;;;0.20;;
32697;SDS011;19087;51.062;3.754;2023-09-19T05:50:43;0.10;;;0.10;;
32697;SDS011;19087;51.062;3.754;2023-09-19T05:53:11;0.20;;;0.20;;
32697;SDS011;19087;51.062;3.754;2023-09-19T05:55:39;0.10;;;0.10;;
32697;SDS011;19087;51.062;3.754;2023-09-19T05:58:07;0.20;;;0.20;;
32697;SDS011;19087;51.062;3.754;2023-09-19T06:00:37;0.10;;;0.10;;
32697;SDS011;19087;51.062;3.754;2023-09-19T06:03:09;0.20;;;0.20;;
32697;SDS011;19087;51.062;3.754;2023-09-19T06:05:35;0.10;;;0.10;;
32697;SDS011;19087;51.062;3.754;2023-09-19T06:08:02;0.20;;;0.20;;
32697;SDS011;19087;51.062;3.754;2023-09-19T06:10:33;0.20;;;0.20;;
32697;SDS011;19087;51.062;3.754;2023-09-19T06:15:35;0.20;;;0.20;;
32697;SDS011;19087;51.062;3.754;2023-09-19T06:18:10;0.10;;;0.10;;
32697;SDS011;19087;51.062;3.754;2023-09-19T06:20:43;0.10;;;0.10;;
32697;SDS011;19087;51.062;3.754;2023-09-19T06:23:10;0.20;;;0.20;;
32697;SDS011;19087;51.062;3.754;2023-09-19T06:25:37;0.20;;;0.20;;
32697;SDS011;19087;51.062;3.754;2023-09-19T06:28:02;0.20;;;0.20;;
32697;SDS011;19087;51.062;3.754;2023-09-19T06:30:33;0.20;;;0.20;;
32697;SDS011;19087;51.062;3.754;2023-09-19T06:33:00;0.20;;;0.20;;
32697;SDS011;19087;51.062;3.754;2023-09-19T06:35:28;0.20;;;0.20;;
32697;SDS011;19087;51.062;3.754;2023-09-19T06:40:43;0.20;;;0.20;;
32697;SDS011;19087;51.062;3.754;2023-09-19T06:43:10;0.20;;;0.20;;
32697;SDS011;19087;51.062;3.754;2023-09-19T06:45:36;0.20;;;0.20;;
32697;SDS011;19087;51.062;3.754;2023-09-19T06:48:04;0.20;;;0.20;;
32697;SDS011;19087;51.062;3.754;2023-09-19T06:53:01;0.10;;;0.10;;
32697;SDS011;19087;51.062;3.754;2023-09-19T06:55:27;0.13;;;0.13;;
32697;SDS011;19087;51.062;3.754;2023-09-19T06:58:12;0.10;;;0.10;;
32697;SDS011;19087;51.062;3.754;2023-09-19T07:00:43;0.10;;;0.10;;
32697;SDS011;19087;51.062;3.754;2023-09-19T07:03:13;0.20;;;0.20;;
32697;SDS011;19087;51.062;3.754;2023-09-19T07:05:41;0.10;;;0.10;;
32697;SDS011;19087;51.062;3.754;2023-09-19T07:08:10;0.15;;;0.15;;
32697;SDS011;19087;51.062;3.754;2023-09-19T07:10:37;0.10;;;0.10;;
32697;SDS011;19087;51.062;3.754;2023-09-19T07:13:14;0.10;;;0.10;;
32697;SDS011;19087;51.062;3.754;2023-09-19T07:15:45;0.20;;;0.20;;
32697;SDS011;19087;51.062;3.754;2023-09-19T07:18:15;0.20;;;0.20;;
32697;SDS011;19087;51.062;3.754;2023-09-19T07:20:43;0.20;;;0.20;;
32697;SDS011;19087;51.062;3.754;2023-09-19T07:23:18;0.10;;;0.10;;
32697;SDS011;19087;51.062;3.754;2023-09-19T07:25:52;0.10;;;0.10;;
32697;SDS011;19087;51.062;3.754;2023-09-19T07:28:21;0.20;;;0.20;;
32697;SDS011;19087;51.062;3.754;2023-09-19T07:33:20;0.10;;;0.10;;
32697;SDS011;19087;51.062;3.754;2023-09-19T07:38:25;0.10;;;0.10;;
32697;SDS011;19087;51.062;3.754;2023-09-19T07:40:52;0.10;;;0.10;;
32697;SDS011;19087;51.062;3.754;2023-09-19T07:43:18;0.20;;;0.20;;
32697;SDS011;19087;51.062;3.754;2023-09-19T07:45:45;0.10;;;0.10;;
32697;SDS011;19087;51.062;3.754;2023-09-19T07:48:10;0.10;;;0.10;;
32697;SDS011;19087;51.062;3.754;2023-09-19T07:50:42;0.10;;;0.10;;
32697;SDS011;19087;51.062;3.754;2023-09-19T07:53:09;0.10;;;0.10;;
32697;SDS011;19087;51.062;3.754;2023-09-19T07:55:35;0.10;;;0.10;;
32697;SDS011;19087;51.062;3.754;2023-09-19T07:58:01;0.10;;;0.10;;
32697;SDS011;19087;51.062;3.754;2023-09-19T08:00:32;0.10;;;0.10;;
32697;SDS011;19087;51.062;3.754;2023-09-19T08:03:00;0.10;;;0.10;;
32697;SDS011;19087;51.062;3.754;2023-09-19T08:07:54;0.10;;;0.10;;
32697;SDS011;19087;51.062;3.754;2023-09-19T08:10:21;0.10;;;0.10;;
32697;SDS011;19087;51.062;3.754;2023-09-19T08:13:01;0.10;;;0.10;;
32697;SDS011;19087;51.062;3.754;2023-09-19T08:15:28;0.10;;;0.10;;
32697;SDS011;19087;51.062;3.754;2023-09-19T08:17:54;0.10;;;0.10;;
32697;SDS011;19087;51.062;3.754;2023-09-19T08:20:31;0.10;;;0.10;;
32697;SDS011;19087;51.062;3.754;2023-09-19T08:22:59;0.10;;;0.10;;
32697;SDS011;19087;51.062;3.754;2023-09-19T08:25:28;0.10;;;0.10;;
32697;SDS011;19087;51.062;3.754;2023-09-19T08:28:03;0.10;;;0.10;;
32697;SDS011;19087;51.062;3.754;2023-09-19T08:30:34;0.10;;;0.10;;
32697;SDS011;19087;51.062;3.754;2023-09-19T08:33:00;0.10;;;0.10;;
32697;SDS011;19087;51.062;3.754;2023-09-19T08:37:58;0.10;;;0.10;;
32697;SDS011;19087;51.062;3.754;2023-09-19T08:40:29;0.10;;;0.10;;
32697;SDS011;19087;51.062;3.754;2023-09-19T08:43:08;0.10;;;0.10;;
32697;SDS011;19087;51.062;3.754;2023-09-19T08:45:41;0.10;;;0.10;;
32697;SDS011;19087;51.062;3.754;2023-09-19T08:54:26;0.10;;;0.10;;
32697;SDS011;19087;51.062;3.754;2023-09-19T08:57:05;0.10;;;0.10;;
32697;SDS011;19087;51.062;3.754;2023-09-19T09:04:46;0.10;;;0.10;;
32697;SDS011;19087;51.062;3.754;2023-09-19T09:13:09;0.10;;;0.10;;
32697;SDS011;19087;51.062;3.754;2023-09-19T09:15:39;0.10;;;0.10;;
32697;SDS011;19087;51.062;3.754;2023-09-19T09:26:58;0.10;;;0.10;;
32697;SDS011;19087;51.062;3.754;2023-09-19T09:32:43;0.10;;;0.10;;
32697;SDS011;19087;51.062;3.754;2023-09-19T09:35:15;0.10;;;0.10;;
32697;SDS011;19087;51.062;3.754;2023-09-19T09:37:58;0.20;;;0.20;;
32697;SDS011;19087;51.062;3.754;2023-09-19T09:40:45;0.10;;;0.10;;
32697;SDS011;19087;51.062;3.754;2023-09-19T09:43:27;0.10;;;0.10;;
32697;SDS011;19087;51.062;3.754;2023-09-19T09:49:03;0.17;;;0.17;;
32697;SDS011;19087;51.062;3.754;2023-09-19T09:54:34;0.20;;;0.20;;
32697;SDS011;19087;51.062;3.754;2023-09-19T09:57:17;0.13;;;0.13;;
32697;SDS011;19087;51.062;3.754;2023-09-19T09:59:59;0.10;;;0.10;;
32697;SDS011;19087;51.062;3.754;2023-09-19T10:02:54;0.10;;;0.10;;
32697;SDS011;19087;51.062;3.754;2023-09-19T10:05:21;0.20;;;0.20;;
32697;SDS011;19087;51.062;3.754;2023-09-19T10:08:10;0.10;;;0.10;;
32697;SDS011;19087;51.062;3.754;2023-09-19T10:10:39;0.10;;;0.10;;
32697;SDS011;19087;51.062;3.754;2023-09-19T10:13:08;0.10;;;0.10;;
32697;SDS011;19087;51.062;3.754;2023-09-19T10:15:42;0.10;;;0.10;;
32697;SDS011;19087;51.062;3.754;2023-09-19T10:18:17;0.10;;;0.10;;
32697;SDS011;19087;51.062;3.754;2023-09-19T10:20:47;0.20;;;0.20;;
32697;SDS011;19087;51.062;3.754;2023-09-19T10:23:15;0.10;;;0.10;;
32697;SDS011;19087;51.062;3.754;2023-09-19T10:25:48;0.10;;;0.10;;
32697;SDS011;19087;51.062;3.754;2023-09-19T10:28:18;0.10;;;0.10;;
32697;SDS011;19087;51.062;3.754;2023-09-19T10:30:48;0.10;;;0.10;;
32697;SDS011;19087;51.062;3.754;2023-09-19T10:33:21;0.10;;;0.10;;
32697;SDS011;19087;51.062;3.754;2023-09-19T10:35:51;0.10;;;0.10;;
32697;SDS011;19087;51.062;3.754;2023-09-19T10:41:08;0.10;;;0.10;;
32697;SDS011;19087;51.062;3.754;2023-09-19T10:43:37;0.10;;;0.10;;
32697;SDS011;19087;51.062;3.754;2023-09-19T10:46:08;0.10;;;0.10;;
32697;SDS011;19087;51.062;3.754;2023-09-19T10:48:40;0.05;;;0.05;;
32697;SDS011;19087;51.062;3.754;2023-09-19T10:53:44;0.10;;;0.10;;
32697;SDS011;19087;51.062;3.754;2023-09-19T10:56:25;0.10;;;0.10;;
32697;SDS011;19087;51.062;3.754;2023-09-19T10:59:12;0.10;;;0.10;;
32697;SDS011;19087;51.062;3.754;2023-09-19T11:01:47;0.00;;;0.00;;
32697;SDS011;19087;51.062;3.754;2023-09-19T11:04:20;0.10;;;0.10;;
32697;SDS011;19087;51.062;3.754;2023-09-19T11:07:00;0.10;;;0.10;;
32697;SDS011;19087;51.062;3.754;2023-09-19T11:09:47;0.10;;;0.10;;
32697;SDS011;19087;51.062;3.754;2023-09-19T11:15:02;0.10;;;0.10;;
32697;SDS011;19087;51.062;3.754;2023-09-19T11:17:39;0.10;;;0.10;;
32697;SDS011;19087;51.062;3.754;2023-09-19T11:20:16;0.10;;;0.10;;
32697;SDS011;19087;51.062;3.754;2023-09-19T11:30:45;0.10;;;0.10;;
32697;SDS011;19087;51.062;3.754;2023-09-19T11:33:27;0.10;;;0.10;;
32697;SDS011;19087;51.062;3.754;2023-09-19T11:47:15;0.10;;;0.10;;
32697;SDS011;19087;51.062;3.754;2023-09-19T11:49:33;0.20;;;0.20;;
32697;SDS011;19087;51.062;3.754;2023-09-19T11:52:01;0.08;;;0.08;;
32697;SDS011;19087;51.062;3.754;2023-09-19T11:54:36;0.10;;;0.10;;
32697;SDS011;19087;51.062;3.754;2023-09-19T11:57:08;0.10;;;0.10;;
32697;SDS011;19087;51.062;3.754;2023-09-19T11:59:38;0.00;;;0.00;;
32697;SDS011;19087;51.062;3.754;2023-09-19T12:02:04;0.10;;;0.10;;
32697;SDS011;19087;51.062;3.754;2023-09-19T12:04:42;0.00;;;0.00;;
32697;SDS011;19087;51.062;3.754;2023-09-19T12:07:11;0.03;;;0.03;;
32697;SDS011;19087;51.062;3.754;2023-09-19T12:09:42;0.10;;;0.10;;
32697;SDS011;19087;51.062;3.754;2023-09-19T12:12:28;0.00;;;0.00;;
32697;SDS011;19087;51.062;3.754;2023-09-19T12:14:57;0.00;;;0.00;;
32697;SDS011;19087;51.062;3.754;2023-09-19T12:17:46;0.10;;;0.10;;
32697;SDS011;19087;51.062;3.754;2023-09-19T12:20:14;0.10;;;0.10;;
32697;SDS011;19087;51.062;3.754;2023-09-19T12:22:40;0.10;;;0.10;;
32697;SDS011;19087;51.062;3.754;2023-09-19T12:25:08;0.05;;;0.05;;
32697;SDS011;19087;51.062;3.754;2023-09-19T12:27:43;0.10;;;0.10;;
32697;SDS011;19087;51.062;3.754;2023-09-19T12:30:18;0.10;;;0.10;;
32697;SDS011;19087;51.062;3.754;2023-09-19T12:32:47;0.10;;;0.10;;
32697;SDS011;19087;51.062;3.754;2023-09-19T12:35:27;0.10;;;0.10;;
32697;SDS011;19087;51.062;3.754;2023-09-19T12:40:34;0.10;;;0.10;;
32697;SDS011;19087;51.062;3.754;2023-09-19T12:43:08;0.10;;;0.10;;
32697;SDS011;19087;51.062;3.754;2023-09-19T12:45:40;0.10;;;0.10;;
32697;SDS011;19087;51.062;3.754;2023-09-19T12:51:01;0.10;;;0.10;;
32697;SDS011;19087;51.062;3.754;2023-09-19T12:53:32;0.10;;;0.10;;
32697;SDS011;19087;51.062;3.754;2023-09-19T12:56:06;0.00;;;0.00;;
32697;SDS011;19087;51.062;3.754;2023-09-19T12:58:57;0.10;;;0.10;;
32697;SDS011;19087;51.062;3.754;2023-09-19T13:01:26;0.08;;;0.08;;
32697;SDS011;19087;51.062;3.754;2023-09-19T13:06:56;0.00;;;0.00;;
32697;SDS011;19087;51.062;3.754;2023-09-19T13:11:59;0.00;;;0.00;;
32697;SDS011;19087;51.062;3.754;2023-09-19T13:14:30;0.00;;;0.00;;
32697;SDS011;19087;51.062;3.754;2023-09-19T13:19:39;0.03;;;0.03;;
32697;SDS011;19087;51.062;3.754;2023-09-19T13:25:02;0.10;;;0.10;;
32697;SDS011;19087;51.062;3.754;2023-09-19T13:27:29;0.10;;;0.10;;
32697;SDS011;19087;51.062;3.754;2023-09-19T13:32:39;0.10;;;0.10;;
32697;SDS011;19087;51.062;3.754;2023-09-19T13:35:08;0.00;;;0.00;;
32697;SDS011;19087;51.062;3.754;2023-09-19T13:37:40;0.10;;;0.10;;
32697;SDS011;19087;51.062;3.754;2023-09-19T13:40:08;0.10;;;0.10;;
32697;SDS011;19087;51.062;3.754;2023-09-19T13:42:40;0.00;;;0.00;;
32697;SDS011;19087;51.062;3.754;2023-09-19T13:45:10;0.10;;;0.10;;
32697;SDS011;19087;51.062;3.754;2023-09-19T13:47:38;0.10;;;0.10;;
32697;SDS011;19087;51.062;3.754;2023-09-19T13:50:05;0.10;;;0.10;;
32697;SDS011;19087;51.062;3.754;2023-09-19T13:52:33;0.00;;;0.00;;
32697;SDS011;19087;51.062;3.754;2023-09-19T13:55:01;0.10;;;0.10;;
32697;SDS011;19087;51.062;3.754;2023-09-19T13:57:28;0.10;;;0.10;;
32697;SDS011;19087;51.062;3.754;2023-09-19T14:02:26;0.10;;;0.10;;
32697;SDS011;19087;51.062;3.754;2023-09-19T14:04:58;0.10;;;0.10;;
32697;SDS011;19087;51.062;3.754;2023-09-19T14:07:23;0.10;;;0.10;;
32697;SDS011;19087;51.062;3.754;2023-09-19T14:09:51;0.10;;;0.10;;
32697;SDS011;19087;51.062;3.754;2023-09-19T14:12:17;0.10;;;0.10;;
32697;SDS011;19087;51.062;3.754;2023-09-19T14:14:43;0.10;;;0.10;;
32697;SDS011;19087;51.062;3.754;2023-09-19T14:17:10;0.10;;;0.10;;
32697;SDS011;19087;51.062;3.754;2023-09-19T14:19:36;0.10;;;0.10;;
32697;SDS011;19087;51.062;3.754;2023-09-19T14:22:02;0.10;;;0.10;;
32697;SDS011;19087;51.062;3.754;2023-09-19T14:24:32;0.13;;;0.13;;
32697;SDS011;19087;51.062;3.754;2023-09-19T14:26:58;0.10;;;0.10;;
32697;SDS011;19087;51.062;3.754;2023-09-19T14:29:24;0.10;;;0.10;;
32697;SDS011;19087;51.062;3.754;2023-09-19T14:31:51;0.00;;;0.00;;
32697;SDS011;19087;51.062;3.754;2023-09-19T14:34:17;0.10;;;0.10;;
32697;SDS011;19087;51.062;3.754;2023-09-19T14:36:46;0.10;;;0.10;;
32697;SDS011;19087;51.062;3.754;2023-09-19T14:39:14;0.10;;;0.10;;
32697;SDS011;19087;51.062;3.754;2023-09-19T14:41:41;0.10;;;0.10;;
32697;SDS011;19087;51.062;3.754;2023-09-19T14:44:07;0.10;;;0.10;;
32697;SDS011;19087;51.062;3.754;2023-09-19T14:46:35;0.10;;;0.10;;
32697;SDS011;19087;51.062;3.754;2023-09-19T14:49:01;0.10;;;0.10;;
32697;SDS011;19087;51.062;3.754;2023-09-19T14:51:35;0.10;;;0.10;;
32697;SDS011;19087;51.062;3.754;2023-09-19T14:54:00;0.10;;;0.10;;
32697;SDS011;19087;51.062;3.754;2023-09-19T14:56:27;0.10;;;0.10;;
32697;SDS011;19087;51.062;3.754;2023-09-19T14:58:55;0.10;;;0.10;;
32697;SDS011;19087;51.062;3.754;2023-09-19T15:01:21;0.10;;;0.10;;
32697;SDS011;19087;51.062;3.754;2023-09-19T15:03:47;0.10;;;0.10;;
32697;SDS011;19087;51.062;3.754;2023-09-19T15:06:14;0.10;;;0.10;;
32697;SDS011;19087;51.062;3.754;2023-09-19T15:08:43;0.10;;;0.10;;
32697;SDS011;19087;51.062;3.754;2023-09-19T15:11:16;0.10;;;0.10;;
32697;SDS011;19087;51.062;3.754;2023-09-19T15:13:43;0.10;;;0.10;;
32697;SDS011;19087;51.062;3.754;2023-09-19T15:18:40;0.10;;;0.10;;
32697;SDS011;19087;51.062;3.754;2023-09-19T15:21:09;0.10;;;0.10;;
32697;SDS011;19087;51.062;3.754;2023-09-19T15:23:38;0.10;;;0.10;;
32697;SDS011;19087;51.062;3.754;2023-09-19T15:26:06;0.10;;;0.10;;
32697;SDS011;19087;51.062;3.754;2023-09-19T15:28:34;0.10;;;0.10;;
32697;SDS011;19087;51.062;3.754;2023-09-19T15:31:01;0.10;;;0.10;;
32697;SDS011;19087;51.062;3.754;2023-09-19T15:33:29;0.10;;;0.10;;
32697;SDS011;19087;51.062;3.754;2023-09-19T15:36:05;0.10;;;0.10;;
32697;SDS011;19087;51.062;3.754;2023-09-19T15:38:55;0.10;;;0.10;;
32697;SDS011;19087;51.062;3.754;2023-09-19T15:41:22;0.10;;;0.10;;
32697;SDS011;19087;51.062;3.754;2023-09-19T15:43:48;0.10;;;0.10;;
32697;SDS011;19087;51.062;3.754;2023-09-19T15:46:14;0.10;;;0.10;;
32697;SDS011;19087;51.062;3.754;2023-09-19T15:48:40;0.10;;;0.10;;
32697;SDS011;19087;51.062;3.754;2023-09-19T15:51:06;0.10;;;0.10;;
32697;SDS011;19087;51.062;3.754;2023-09-19T15:53:43;0.10;;;0.10;;
32697;SDS011;19087;51.062;3.754;2023-09-19T15:56:10;0.10;;;0.10;;
32697;SDS011;19087;51.062;3.754;2023-09-19T15:58:37;0.10;;;0.10;;
32697;SDS011;19087;51.062;3.754;2023-09-19T16:01:06;0.10;;;0.10;;
32697;SDS011;19087;51.062;3.754;2023-09-19T16:03:38;0.10;;;0.10;;
32697;SDS011;19087;51.062;3.754;2023-09-19T16:06:08;0.10;;;0.10;;
32697;SDS011;19087;51.062;3.754;2023-09-19T16:08:42;0.10;;;0.10;;
32697;SDS011;19087;51.062;3.754;2023-09-19T16:11:09;0.10;;;0.10;;
32697;SDS011;19087;51.062;3.754;2023-09-19T16:13:40;0.10;;;0.10;;
32697;SDS011;19087;51.062;3.754;2023-09-19T16:16:09;0.10;;;0.10;;
32697;SDS011;19087;51.062;3.754;2023-09-19T16:18:37;0.10;;;0.10;;
32697;SDS011;19087;51.062;3.754;2023-09-19T16:21:07;0.10;;;0.10;;
32697;SDS011;19087;51.062;3.754;2023-09-19T16:23:34;0.10;;;0.10;;
32697;SDS011;19087;51.062;3.754;2023-09-19T16:26:09;0.10;;;0.10;;
32697;SDS011;19087;51.062;3.754;2023-09-19T16:28:39;0.10;;;0.10;;
32697;SDS011;19087;51.062;3.754;2023-09-19T16:31:06;0.13;;;0.13;;
32697;SDS011;19087;51.062;3.754;2023-09-19T16:33:34;0.10;;;0.10;;
32697;SDS011;19087;51.062;3.754;2023-09-19T16:36:02;0.15;;;0.15;;
32697;SDS011;19087;51.062;3.754;2023-09-19T16:38:33;0.10;;;0.10;;
32697;SDS011;19087;51.062;3.754;2023-09-19T16:41:01;0.10;;;0.10;;
32697;SDS011;19087;51.062;3.754;2023-09-19T16:43:27;0.10;;;0.10;;
32697;SDS011;19087;51.062;3.754;2023-09-19T16:48:25;0.10;;;0.10;;
32697;SDS011;19087;51.062;3.754;2023-09-19T16:50:52;0.10;;;0.10;;
32697;SDS011;19087;51.062;3.754;2023-09-19T16:53:20;0.20;;;0.20;;
32697;SDS011;19087;51.062;3.754;2023-09-19T16:55:46;0.10;;;0.10;;
32697;SDS011;19087;51.062;3.754;2023-09-19T16:58:14;0.10;;;0.10;;
32697;SDS011;19087;51.062;3.754;2023-09-19T17:00:42;0.10;;;0.10;;
32697;SDS011;19087;51.062;3.754;2023-09-19T17:05:41;0.10;;;0.10;;
32697;SDS011;19087;51.062;3.754;2023-09-19T17:08:07;0.20;;;0.20;;
32697;SDS011;19087;51.062;3.754;2023-09-19T17:10:37;0.10;;;0.10;;
32697;SDS011;19087;51.062;3.754;2023-09-19T17:13:04;0.10;;;0.10;;